createdAt,value
2022-12-13T00:03:47.513Z,70.37
2022-12-13T00:08:49.366Z,76.30
2022-12-13T00:13:52.782Z,79.82
2022-12-13T00:18:56.511Z,75.10
2022-12-13T00:23:59.300Z,77.40
2022-12-13T00:29:03.837Z,80.65
2022-12-13T00:34:05.491Z,69.72
2022-12-13T00:39:07.194Z,64.80
2022-12-13T00:44:12.071Z,76.18
2022-12-13T00:49:13.754Z,79.37
2022-12-13T00:54:15.956Z,92.00
2022-12-13T00:59:19.016Z,91.65
2022-12-13T01:04:20.696Z,89.67
2022-12-13T01:09:24.320Z,83.28
2022-12-13T01:14:27.977Z,101.65
2022-12-13T01:19:29.663Z,85.87
2022-12-13T01:24:31.987Z,97.50
2022-12-13T01:29:36.043Z,99.30
2022-12-13T01:34:37.682Z,108.07
2022-12-13T01:39:39.329Z,82.75
2022-12-13T01:45:03.673Z,70.80
2022-12-13T01:50:09.021Z,87.88
2022-12-13T01:55:12.222Z,64.75
2022-12-13T02:00:16.653Z,76.93
2022-12-13T02:05:24.571Z,72.57
2022-12-13T02:10:27.619Z,72.03
2022-12-13T02:15:41.938Z,70.27
2022-12-13T02:20:59.295Z,84.20
2022-12-13T02:26:23.392Z,73.70
2022-12-13T02:36:37.049Z,84.25
2022-12-13T02:41:45.487Z,67.55
2022-12-13T02:46:51.856Z,69.10
2022-12-13T02:51:54.397Z,90.05
2022-12-13T02:56:57.157Z,72.22
2022-12-13T03:02:30.833Z,79.53
2022-12-13T03:07:39.113Z,67.50
2022-12-13T03:12:47.346Z,71.12
2022-12-13T03:17:53.839Z,71.55
2022-12-13T03:22:56.663Z,83.15
2022-12-13T03:27:58.299Z,77.57
2022-12-13T03:33:04.640Z,74.03
2022-12-13T03:38:06.398Z,75.80
2022-12-13T03:43:08.105Z,76.15
2022-12-13T03:48:11.149Z,80.82
2022-12-13T03:53:23.188Z,68.90
2022-12-13T03:58:37.642Z,70.90
2022-12-13T04:03:42.890Z,74.70
2022-12-13T04:08:44.692Z,72.35
2022-12-13T04:13:46.503Z,73.10
2022-12-13T04:18:49.593Z,69.47
2022-12-13T04:23:51.298Z,90.25
2022-12-13T04:28:54.783Z,75.43
2022-12-13T04:39:00.928Z,74.32
2022-12-13T04:44:03.575Z,85.25
2022-12-13T04:49:06.661Z,78.20
2022-12-13T04:54:23.624Z,85.38
2022-12-13T04:59:26.380Z,75.20
2022-12-13T05:04:32.902Z,67.87
2022-12-13T05:09:36.068Z,79.55
2022-12-13T05:14:37.756Z,64.57
2022-12-13T05:19:40.918Z,70.40
2022-12-13T05:24:43.248Z,79.72
2022-12-13T05:29:44.946Z,61.70
2022-12-13T05:34:48.036Z,68.45
2022-12-13T05:39:49.697Z,63.13
2022-12-13T05:44:51.765Z,66.45
2022-12-13T05:49:54.747Z,71.57
2022-12-13T05:54:57.179Z,75.90
2022-12-13T06:00:06.076Z,72.22
2022-12-13T06:05:29.380Z,66.70
2022-12-13T06:10:35.015Z,73.35
2022-12-13T06:15:38.104Z,63.45
2022-12-13T06:20:55.924Z,56.28
2022-12-13T06:25:57.841Z,58.90
2022-12-13T06:31:00.243Z,58.72
2022-12-13T06:36:04.166Z,58.50
2022-12-13T06:41:07.409Z,75.47
2022-12-13T06:46:09.595Z,62.50
2022-12-13T06:51:12.689Z,70.00
2022-12-13T06:56:24.315Z,73.53
2022-12-13T07:01:26.753Z,82.03
2022-12-13T07:06:29.791Z,77.37
2022-12-13T07:11:32.880Z,71.95
2022-12-13T07:16:34.541Z,60.20
2022-12-13T07:21:37.631Z,79.85
2022-12-13T07:26:39.401Z,89.68
2022-12-13T07:31:43.324Z,71.18
2022-12-13T07:36:49.357Z,70.47
2022-12-13T07:41:54.768Z,76.53
2022-12-13T07:46:56.477Z,75.03
2022-12-13T07:51:59.466Z,70.78
2022-12-13T07:57:04.402Z,79.03
2022-12-13T08:02:07.027Z,72.22
2022-12-13T08:07:10.851Z,60.97
2022-12-13T08:12:12.558Z,71.87
2022-12-13T08:17:14.311Z,72.20
2022-12-13T08:22:24.174Z,77.32
2022-12-13T08:27:26.340Z,88.18
2022-12-13T08:32:28.109Z,76.90
2022-12-13T08:37:31.124Z,80.65
2022-12-13T08:42:32.887Z,78.10
2022-12-13T08:47:38.332Z,71.53
2022-12-13T08:52:44.525Z,80.00
2022-12-13T08:57:46.248Z,70.30
2022-12-13T09:02:48.097Z,71.35
2022-12-13T09:07:54.965Z,61.78
2022-12-13T09:13:01.400Z,66.80
2022-12-13T09:18:05.455Z,68.07
2022-12-13T09:23:13.867Z,55.90
2022-12-13T09:28:24.579Z,70.18
2022-12-13T09:33:30.191Z,65.95
2022-12-13T09:38:35.733Z,61.65
2022-12-13T09:43:43.511Z,63.53
2022-12-13T09:48:48.307Z,61.97
2022-12-13T09:53:53.666Z,62.42
2022-12-13T09:58:56.224Z,52.67
2022-12-13T10:04:00.964Z,59.83
2022-12-13T10:09:07.571Z,64.47
2022-12-13T10:14:13.296Z,50.72
2022-12-13T10:19:29.059Z,52.42
2022-12-13T10:24:49.247Z,56.83
2022-12-13T10:30:03.417Z,53.63
2022-12-13T10:35:21.018Z,52.17
2022-12-13T10:40:34.737Z,51.28
2022-12-13T10:45:36.560Z,56.22
2022-12-13T10:50:38.375Z,55.95
2022-12-13T10:55:42.494Z,49.38
2022-12-13T11:06:01.640Z,53.05
2022-12-13T11:11:06.559Z,48.25
2022-12-13T11:16:21.323Z,46.80
2022-12-13T11:21:28.416Z,47.08
2022-12-13T11:26:34.151Z,48.22
2022-12-13T11:31:46.260Z,43.50
2022-12-13T11:36:55.372Z,40.40
2022-12-13T11:42:04.358Z,42.30
2022-12-13T11:47:14.142Z,52.97
2022-12-13T11:52:21.358Z,43.47
2022-12-13T11:57:39.098Z,39.10
2022-12-13T12:02:45.595Z,41.67
2022-12-13T12:08:20.942Z,40.95
2022-12-13T12:13:19.442Z,38.33
2022-12-13T12:18:21.145Z,47.50
2022-12-13T12:23:38.566Z,34.53
2022-12-13T12:29:19.308Z,37.25
2022-12-13T12:34:30.917Z,38.20
2022-12-13T12:39:42.889Z,35.08
2022-12-13T12:45:04.701Z,38.67
2022-12-13T12:50:24.152Z,34.65
2022-12-13T12:55:35.542Z,39.35
2022-12-13T13:00:44.842Z,36.50
2022-12-13T13:05:58.603Z,46.08
2022-12-13T13:11:05.299Z,37.17
2022-12-13T13:16:34.362Z,44.00
2022-12-13T13:21:47.409Z,34.15
2022-12-13T13:26:51.361Z,41.03
2022-12-13T13:32:01.940Z,43.03
2022-12-13T13:37:05.171Z,40.92
2022-12-13T13:42:17.419Z,48.13
2022-12-13T13:47:36.236Z,46.08
2022-12-13T13:52:50.803Z,38.17
2022-12-13T14:03:57.955Z,44.72
2022-12-13T14:09:23.886Z,44.42
2022-12-13T14:15:15.322Z,45.28
2022-12-13T14:20:42.197Z,40.30
2022-12-13T14:26:05.370Z,36.13
2022-12-13T14:31:20.110Z,38.28
2022-12-13T14:36:29.892Z,36.40
2022-12-13T14:41:31.743Z,37.88
2022-12-13T14:46:34.038Z,39.38
2022-12-13T14:51:38.547Z,36.72
2022-12-13T14:56:54.555Z,35.70
2022-12-13T15:01:58.599Z,41.03
2022-12-13T15:07:06.676Z,48.13
2022-12-13T15:12:14.994Z,44.25
2022-12-13T15:17:29.380Z,43.87
2022-12-13T15:22:34.657Z,51.53
2022-12-13T15:27:36.503Z,47.33
2022-12-13T15:33:05.829Z,48.87
2022-12-13T15:38:13.410Z,60.78
2022-12-13T15:43:36.001Z,49.88
2022-12-13T15:48:40.353Z,51.55
2022-12-13T15:54:06.407Z,50.10
2022-12-13T15:59:25.366Z,50.28
2022-12-13T16:04:28.958Z,49.28
2022-12-13T16:09:35.163Z,42.95
2022-12-13T16:14:48.917Z,48.47
2022-12-13T16:19:52.249Z,41.53
2022-12-13T16:24:55.300Z,42.90
2022-12-13T16:29:57.041Z,54.13
2022-12-13T16:34:58.714Z,57.00
2022-12-13T16:40:11.733Z,50.10
2022-12-13T16:50:35.668Z,57.95
2022-12-13T16:55:38.815Z,57.05
2022-12-13T17:00:41.027Z,58.80
2022-12-13T17:05:43.981Z,52.42
2022-12-13T17:10:47.103Z,58.20
2022-12-13T17:21:06.695Z,48.97
2022-12-13T17:26:11.026Z,50.05
2022-12-13T17:31:13.573Z,40.67
2022-12-13T17:36:16.071Z,42.65
2022-12-13T17:41:19.209Z,44.75
2022-12-13T17:46:20.926Z,43.73
2022-12-13T17:51:22.651Z,40.12
2022-12-13T17:56:25.833Z,35.63
2022-12-13T18:01:27.574Z,40.00
2022-12-13T18:06:29.321Z,39.33
2022-12-13T18:11:34.477Z,39.33
2022-12-13T18:16:38.669Z,33.30
2022-12-13T18:26:43.630Z,32.60
2022-12-13T18:31:45.464Z,33.25
2022-12-13T18:36:47.180Z,32.35
2022-12-13T18:41:50.183Z,35.58
2022-12-13T18:46:51.958Z,39.15
2022-12-13T18:51:56.487Z,43.05
2022-12-13T18:56:59.580Z,37.90
2022-12-13T19:02:01.351Z,31.80
2022-12-13T19:07:03.103Z,30.25
2022-12-13T19:12:06.443Z,38.35
2022-12-13T19:17:08.133Z,30.97
2022-12-13T19:22:09.804Z,35.92
2022-12-13T19:27:12.916Z,35.67
2022-12-13T19:32:14.735Z,35.30
2022-12-13T19:37:16.435Z,34.83
2022-12-13T19:42:19.506Z,40.00
2022-12-13T19:47:21.151Z,41.50
2022-12-13T19:52:23.001Z,35.30
2022-12-13T19:57:26.522Z,28.12
2022-12-13T20:02:28.552Z,32.47
2022-12-13T20:07:30.254Z,41.20
2022-12-13T20:12:38.820Z,30.00
2022-12-13T20:17:42.300Z,32.75
2022-12-13T20:22:44.043Z,34.17
2022-12-13T20:27:51.377Z,34.80
2022-12-13T20:32:53.180Z,32.83
2022-12-13T20:37:54.872Z,33.60
2022-12-13T20:42:57.941Z,34.35
2022-12-13T20:47:59.644Z,25.10
2022-12-13T20:53:01.378Z,42.13
2022-12-13T20:58:04.466Z,31.02
2022-12-13T21:03:06.231Z,24.73
2022-12-13T21:08:07.950Z,33.25
2022-12-13T21:13:11.075Z,35.45
2022-12-13T21:18:12.800Z,39.10
2022-12-13T21:23:14.446Z,35.25
2022-12-13T21:28:17.539Z,33.33
2022-12-13T21:33:19.269Z,35.67
2022-12-13T21:38:21.158Z,33.83
2022-12-13T21:43:24.532Z,39.67
2022-12-13T21:48:26.500Z,31.40
2022-12-13T21:53:28.621Z,35.63
2022-12-13T21:58:31.938Z,33.08
2022-12-13T22:03:33.578Z,34.38
2022-12-13T22:08:35.214Z,31.42
2022-12-13T22:13:38.338Z,34.58
2022-12-13T22:18:43.572Z,35.33
2022-12-13T22:23:45.391Z,34.50
2022-12-13T22:28:49.418Z,31.55
2022-12-13T22:33:51.332Z,33.05
2022-12-13T22:38:53.016Z,29.95
2022-12-13T22:43:56.095Z,27.58
2022-12-13T22:48:57.747Z,28.17
2022-12-13T22:53:59.476Z,31.83
2022-12-13T22:59:03.956Z,28.73
2022-12-13T23:04:06.123Z,28.30
2022-12-13T23:09:10.616Z,28.35
2022-12-13T23:14:15.791Z,30.25
2022-12-13T23:19:41.077Z,29.65
2022-12-13T23:24:39.771Z,32.25
2022-12-13T23:29:43.077Z,26.10
2022-12-13T23:34:44.937Z,27.30
2022-12-13T23:39:46.674Z,28.90
2022-12-13T23:44:49.755Z,28.70
2022-12-13T23:49:51.419Z,30.80
2022-12-13T23:54:53.134Z,27.25
2022-12-13T23:59:56.277Z,31.00
